Time;durP1;ratioP1;P1;durP2;ratioP2;P2;SDS_P1;SDS_P2;PMS_P1;PMS_P2;Temp;Humidity;BMP_temperature;BMP_pressure;BME280_temperature;BME280_humidity;BME280_pressure;Samples;Min_cycle;Max_cycle;Signal;HPM_P1;HPM_P2
2022/12/14 00:01:18;;;;;;;15.50;9.03;;;-6.90;99.90;;;;;;5034848;28;20802;-86
2022/12/14 00:03:44;;;;;;;14.80;8.07;;;-6.90;99.90;;;;;;5034730;28;20477;-86
2022/12/14 00:06:21;;;;;;;12.40;8.10;;;-7.00;99.90;;;;;;5034126;28;20509;-87
2022/12/14 00:08:49;;;;;;;13.23;8.13;;;-7.20;99.90;;;;;;5052534;28;20500;-87
2022/12/14 00:11:14;;;;;;;15.67;9.00;;;-7.20;99.90;;;;;;5052407;28;20416;-88
2022/12/14 00:13:41;;;;;;;10.77;7.00;;;-7.20;99.90;;;;;;5034502;28;20404;-87
2022/12/14 00:16:17;;;;;;;15.87;8.37;;;-7.10;99.90;;;;;;5052393;28;20270;-86
2022/12/14 00:18:43;;;;;;;13.13;8.10;;;-7.00;99.90;;;;;;5034503;28;20423;-85
2022/12/14 00:21:11;;;;;;;12.67;7.53;;;-7.00;99.90;;;;;;5034521;28;20421;-86
2022/12/14 00:23:38;;;;;;;14.70;7.40;;;-7.00;99.90;;;;;;5034336;28;20937;-88
2022/12/14 00:26:13;;;;;;;15.33;7.43;;;-6.90;99.90;;;;;;5034320;28;20436;-87
2022/12/14 00:28:40;;;;;;;16.00;7.77;;;-6.90;99.90;;;;;;5052047;28;20460;-86
2022/12/14 00:31:06;;;;;;;13.57;7.67;;;-6.80;99.90;;;;;;5034219;28;20411;-86
2022/12/14 00:33:32;;;;;;;12.33;7.43;;;-6.80;99.90;;;;;;5034015;28;20990;-87
2022/12/14 00:35:58;;;;;;;13.77;7.00;;;-6.80;99.90;;;;;;5034147;28;20602;-87
2022/12/14 00:38:23;;;;;;;12.73;6.63;;;-6.80;99.90;;;;;;5034265;28;20417;-87
2022/12/14 00:40:49;;;;;;;15.07;7.67;;;-6.80;99.90;;;;;;5052002;28;20194;-87
2022/12/14 00:43:15;;;;;;;10.37;6.40;;;-6.70;99.90;;;;;;5033838;28;20227;-86
2022/12/14 00:45:43;;;;;;;11.50;6.67;;;-6.80;99.90;;;;;;5034121;28;20196;-86
2022/12/14 00:48:09;;;;;;;12.73;6.27;;;-6.80;99.90;;;;;;5033999;28;20205;-87
2022/12/14 00:50:35;;;;;;;14.80;8.07;;;-6.80;99.90;;;;;;5052098;28;20447;-87
2022/12/14 00:53:00;;;;;;;13.63;7.33;;;-6.70;99.90;;;;;;5051821;28;20444;-87
2022/12/14 00:55:26;;;;;;;13.67;7.23;;;-6.60;99.90;;;;;;5034084;28;20197;-87
2022/12/14 00:57:52;;;;;;;11.97;6.50;;;-6.50;99.90;;;;;;5034200;28;20170;-87
2022/12/14 01:00:17;;;;;;;13.63;6.90;;;-6.50;99.90;;;;;;5036553;28;20228;-87
2022/12/14 01:02:43;;;;;;;12.87;6.37;;;-6.50;99.90;;;;;;5056232;28;20177;-87
2022/12/14 01:05:09;;;;;;;11.10;6.83;;;-6.50;99.90;;;;;;5037660;28;20272;-86
2022/12/14 01:07:34;;;;;;;13.03;6.90;;;-6.60;99.90;;;;;;5039315;28;20213;-87
2022/12/14 01:10:00;;;;;;;13.77;7.10;;;-6.60;99.90;;;;;;5056018;28;20197;-86
2022/12/14 01:12:26;;;;;;;10.43;6.33;;;-6.60;99.90;;;;;;5055579;28;20178;-86
2022/12/14 01:14:51;;;;;;;13.30;7.17;;;-6.60;99.90;;;;;;5037934;28;20595;-86
2022/12/14 01:17:17;;;;;;;11.00;6.80;;;-6.50;99.90;;;;;;5056032;28;20178;-87
2022/12/14 01:19:42;;;;;;;12.60;6.60;;;-6.50;99.90;;;;;;5037916;28;20184;-87
2022/12/14 01:22:09;;;;;;;12.47;6.97;;;-6.50;99.90;;;;;;5055588;28;20192;-87
2022/12/14 01:24:34;;;;;;;9.90;6.40;;;-6.50;99.90;;;;;;5055348;28;20173;-87
2022/12/14 01:27:00;;;;;;;12.10;6.40;;;-6.60;99.90;;;;;;5055247;28;20440;-87
2022/12/14 01:29:26;;;;;;;11.37;6.87;;;-6.50;99.90;;;;;;5055519;28;20297;-87
2022/12/14 01:31:52;;;;;;;12.13;6.30;;;-6.50;99.90;;;;;;5037622;28;20174;-87
2022/12/14 01:34:17;;;;;;;11.57;6.43;;;-6.50;99.90;;;;;;5055275;28;20173;-86
2022/12/14 01:36:43;;;;;;;12.40;7.33;;;-6.40;99.90;;;;;;5037551;28;20195;-86
2022/12/14 01:39:14;;;;;;;12.97;7.10;;;-6.40;99.90;;;;;;5037517;28;20194;-87
2022/12/14 01:41:43;;;;;;;12.30;6.93;;;-6.40;99.90;;;;;;5037289;28;20176;-89
2022/12/14 01:44:09;;;;;;;11.87;7.03;;;-6.40;99.90;;;;;;5037248;28;20417;-87
2022/12/14 01:46:34;;;;;;;13.37;7.07;;;-6.40;99.90;;;;;;5055190;28;20448;-86
2022/12/14 01:49:12;;;;;;;12.10;6.47;;;-6.50;99.90;;;;;;5037348;28;20205;-87
2022/12/14 01:51:39;;;;;;;14.47;7.13;;;-6.50;99.90;;;;;;5055147;28;20203;-87
2022/12/14 01:54:08;;;;;;;14.10;7.93;;;-6.50;99.90;;;;;;5037069;28;20479;-86
2022/12/14 01:56:38;;;;;;;12.80;7.53;;;-6.40;99.90;;;;;;5037453;28;20440;-87
2022/12/14 01:59:10;;;;;;;15.70;8.13;;;-6.40;99.90;;;;;;5055724;28;20413;-87
2022/12/14 02:01:36;;;;;;;16.43;8.10;;;-6.40;99.90;;;;;;5056225;28;20420;-87
2022/12/14 02:04:03;;;;;;;16.60;8.37;;;-6.30;99.90;;;;;;5054434;28;20468;-85
2022/12/14 02:06:34;;;;;;;12.27;7.17;;;-6.30;99.90;;;;;;5036765;28;20221;-88
2022/12/14 02:09:03;;;;;;;16.80;8.33;;;-6.30;99.90;;;;;;5054843;28;20460;-86
2022/12/14 02:12:04;;;;;;;12.73;7.63;;;-6.30;99.90;;;;;;5053797;28;20418;-87
2022/12/14 02:14:32;;;;;;;13.33;7.87;;;-6.40;99.90;;;;;;5012850;28;20420;-87
2022/12/14 02:16:58;;;;;;;12.83;6.93;;;-6.50;99.90;;;;;;5054752;28;20517;-87
2022/12/14 02:19:24;;;;;;;13.60;7.10;;;-6.50;99.90;;;;;;5054604;28;20451;-87
2022/12/14 02:22:27;;;;;;;13.27;7.20;;;-6.70;99.90;;;;;;5054525;28;20444;-87
2022/12/14 02:25:14;;;;;;;13.63;6.40;;;-6.70;99.90;;;;;;5036483;28;20174;-86
2022/12/14 02:28:00;;;;;;;14.97;7.73;;;-6.70;99.90;;;;;;5036760;28;20416;-86
2022/12/14 02:30:29;;;;;;;13.30;7.63;;;-6.60;99.90;;;;;;5036559;28;20788;-87
2022/12/14 02:33:19;;;;;;;13.57;7.37;;;-6.60;99.90;;;;;;5054513;28;20400;-86
2022/12/14 02:36:00;;;;;;;11.60;6.90;;;-6.70;99.90;;;;;;5036482;28;20433;-87
2022/12/14 02:39:02;;;;;;;12.97;6.87;;;-6.70;99.90;;;;;;5036558;28;20473;-86
2022/12/14 02:41:50;;;;;;;14.00;7.27;;;-6.80;99.90;;;;;;5036194;28;20423;-87
2022/12/14 02:44:26;;;;;;;11.77;6.37;;;-6.70;99.90;;;;;;5036626;28;20404;-86
2022/12/14 02:47:01;;;;;;;12.30;7.33;;;-6.70;99.90;;;;;;5036318;28;20518;-86
2022/12/14 02:50:07;;;;;;;15.53;7.37;;;-6.70;99.90;;;;;;5053880;28;20455;-87
2022/12/14 02:52:43;;;;;;;11.97;6.77;;;-6.70;99.90;;;;;;5035806;28;20487;-86
2022/12/14 02:55:43;;;;;;;11.77;6.50;;;-6.70;99.90;;;;;;5053989;28;20408;-87
2022/12/14 02:58:15;;;;;;;8.80;6.10;;;-6.70;99.90;;;;;;5004513;28;20444;-89
2022/12/14 03:00:41;;;;;;;10.33;6.30;;;-6.80;99.90;;;;;;5035840;28;20499;-86
2022/12/14 03:03:07;;;;;;;13.23;6.80;;;-6.80;99.90;;;;;;5053488;28;20895;-87
2022/12/14 03:05:34;;;;;;;11.50;6.40;;;-6.80;99.90;;;;;;5035770;28;20514;-87
2022/12/14 03:08:07;;;;;;;12.43;6.00;;;-6.80;99.90;;;;;;5035677;28;20448;-86
2022/12/14 03:10:46;;;;;;;11.20;6.47;;;-6.70;99.90;;;;;;5035638;28;20544;-86
2022/12/14 03:13:25;;;;;;;10.07;6.20;;;-6.80;99.90;;;;;;5035927;28;20462;-87
2022/12/14 03:16:20;;;;;;;12.03;6.17;;;-6.70;99.90;;;;;;5035821;28;20527;-87
2022/12/14 03:18:55;;;;;;;12.17;6.23;;;-6.60;99.90;;;;;;5035542;28;20569;-87
2022/12/14 03:21:27;;;;;;;11.70;6.40;;;-6.50;99.90;;;;;;5035843;28;20420;-86
2022/12/14 03:23:55;;;;;;;11.63;6.90;;;-6.60;99.90;;;;;;5035138;28;20425;-87
2022/12/14 03:26:26;;;;;;;8.43;5.83;;;-6.60;99.90;;;;;;5035360;28;20432;-87
2022/12/14 03:28:56;;;;;;;10.27;6.33;;;-6.50;99.90;;;;;;5035268;28;21027;-87
2022/12/14 03:31:25;;;;;;;11.20;6.60;;;-6.60;99.90;;;;;;5035387;28;20882;-87
2022/12/14 03:33:55;;;;;;;12.33;8.10;;;-6.70;99.90;;;;;;5035193;28;20405;-87
2022/12/14 03:36:45;;;;;;;13.77;7.30;;;-6.50;99.90;;;;;;5053084;28;20483;-87
2022/12/14 03:39:17;;;;;;;12.80;7.17;;;-6.50;99.90;;;;;;5035124;28;20412;-87
2022/12/14 03:41:56;;;;;;;14.90;7.43;;;-6.60;99.90;;;;;;5052876;28;20413;-87
2022/12/14 03:44:44;;;;;;;11.87;6.50;;;-6.60;99.90;;;;;;5052946;28;20504;-87
2022/12/14 03:47:39;;;;;;;11.73;6.27;;;-6.60;99.90;;;;;;5034354;28;20437;-87
2022/12/14 03:50:10;;;;;;;15.73;7.27;;;-6.60;99.90;;;;;;5032807;28;20496;-87
2022/12/14 03:53:00;;;;;;;11.67;6.00;;;-6.70;99.90;;;;;;5052507;28;20891;-86
2022/12/14 03:55:32;;;;;;;10.87;5.97;;;-6.70;99.90;;;;;;5034665;28;20437;-87
2022/12/14 03:58:26;;;;;;;10.47;6.47;;;-6.70;99.90;;;;;;5052609;28;20417;-88
2022/12/14 04:01:28;;;;;;;10.33;5.87;;;-6.70;99.90;;;;;;5052751;28;20417;-87
2022/12/14 04:04:08;;;;;;;12.43;6.33;;;-6.60;99.90;;;;;;5052381;28;20408;-87
2022/12/14 04:06:37;;;;;;;12.23;6.33;;;-6.70;99.90;;;;;;5034704;28;20452;-87
2022/12/14 04:09:31;;;;;;;9.30;6.00;;;-6.70;99.90;;;;;;5034682;28;20982;-87
2022/12/14 04:20:47;;;;;;;10.00;5.13;;;-6.70;99.90;;;;;;5052569;28;20399;-86
2022/12/14 04:26:03;;;;;;;10.20;5.90;;;-6.60;99.90;;;;;;5052062;28;20405;-87
2022/12/14 04:26:11;;;;;;;10.17;5.90;;;-6.70;99.90;;;;;;5051922;28;20432;-87
2022/12/14 04:31:32;;;;;;;9.33;6.00;;;-6.60;99.90;;;;;;5052435;28;20412;-87
2022/12/14 04:34:02;;;;;;;8.10;5.77;;;-6.60;99.90;;;;;;5051619;28;20487;-87
2022/12/14 04:36:38;;;;;;;8.63;5.33;;;-6.60;99.90;;;;;;5034318;28;20432;-87
2022/12/14 04:39:07;;;;;;;9.80;6.23;;;-6.60;99.90;;;;;;5051972;28;20427;-87
2022/12/14 04:41:36;;;;;;;9.00;4.93;;;-6.60;99.90;;;;;;5034084;28;20420;-86
2022/12/14 04:44:25;;;;;;;10.23;5.80;;;-6.70;99.90;;;;;;5033904;28;20503;-87
2022/12/14 04:46:52;;;;;;;8.17;4.27;;;-6.70;99.90;;;;;;5033471;28;20432;-86
2022/12/14 04:49:41;;;;;;;7.83;5.03;;;-6.50;99.90;;;;;;5033934;28;20606;-87
2022/12/14 04:52:14;;;;;;;8.43;4.90;;;-6.40;99.90;;;;;;5033866;28;20413;-86
2022/12/14 04:54:46;;;;;;;8.20;5.23;;;-6.30;99.90;;;;;;5033896;28;20408;-86
2022/12/14 04:57:41;;;;;;;9.27;4.80;;;-6.40;99.90;;;;;;5034187;28;20527;-87
2022/12/14 05:00:09;;;;;;;9.60;4.63;;;-6.50;99.90;;;;;;5052083;28;20416;-87
2022/12/14 05:02:34;;;;;;;7.17;3.97;;;-6.40;99.90;;;;;;5051460;28;20412;-87
2022/12/14 05:05:24;;;;;;;8.17;4.47;;;-6.40;99.90;;;;;;5033898;28;20431;-87
2022/12/14 05:08:10;;;;;;;6.83;4.00;;;-6.30;99.90;;;;;;5005636;28;20193;-87
2022/12/14 05:10:55;;;;;;;6.63;3.97;;;-6.20;99.90;;;;;;5051564;28;20413;-86
2022/12/14 05:13:35;;;;;;;6.13;3.40;;;-6.20;99.90;;;;;;5051438;28;20767;-87
2022/12/14 05:16:01;;;;;;;4.80;3.10;;;-6.10;99.90;;;;;;5034006;28;20424;-87
2022/12/14 05:18:27;;;;;;;6.17;3.70;;;-5.90;99.90;;;;;;5051631;28;20404;-86
2022/12/14 05:20:53;;;;;;;6.63;3.67;;;-5.80;99.90;;;;;;5051616;28;20943;-86
2022/12/14 05:23:18;;;;;;;5.40;2.97;;;-5.60;99.90;;;;;;5051336;28;20205;-87
2022/12/14 05:25:44;;;;;;;5.00;2.90;;;-5.20;99.90;;;;;;5033673;28;20205;-87
2022/12/14 05:28:10;;;;;;;6.10;2.97;;;-5.00;99.90;;;;;;5033814;28;20172;-88
2022/12/14 05:30:36;;;;;;;4.73;2.73;;;-4.90;99.90;;;;;;5051677;28;20168;-87
2022/12/14 05:33:02;;;;;;;4.87;2.77;;;-4.80;99.90;;;;;;5033435;28;20419;-87
2022/12/14 05:35:27;;;;;;;5.70;3.50;;;-4.90;99.90;;;;;;5033787;28;20281;-86
2022/12/14 05:37:53;;;;;;;5.43;2.90;;;-4.80;99.90;;;;;;5051569;28;20193;-87
2022/12/14 05:40:18;;;;;;;4.37;2.83;;;-4.80;99.90;;;;;;5051512;28;20181;-87
2022/12/14 05:42:44;;;;;;;3.67;2.50;;;-4.60;99.90;;;;;;5033560;28;20170;-87
2022/12/14 05:45:13;;;;;;;4.63;2.93;;;-4.40;99.90;;;;;;5051567;28;20224;-87
2022/12/14 05:47:39;;;;;;;4.73;3.07;;;-4.40;99.90;;;;;;5036233;28;20551;-87
2022/12/14 05:50:05;;;;;;;7.80;3.33;;;-4.20;99.90;;;;;;5037088;28;20447;-87
2022/12/14 05:52:31;;;;;;;5.00;3.33;;;-4.00;99.90;;;;;;5054697;28;20208;-87
2022/12/14 05:54:56;;;;;;;7.33;4.50;;;-4.00;99.90;;;;;;5037299;28;20449;-87
2022/12/14 05:57:22;;;;;;;7.40;3.83;;;-4.00;99.90;;;;;;5055259;28;20254;-87
2022/12/14 05:59:49;;;;;;;5.33;3.37;;;-3.90;99.90;;;;;;5054961;28;20182;-86
2022/12/14 06:02:14;;;;;;;6.87;3.87;;;-3.90;99.90;;;;;;5036953;28;20325;-85
2022/12/14 06:04:40;;;;;;;7.90;4.47;;;-3.90;99.90;;;;;;5054511;28;20989;-87
2022/12/14 06:07:09;;;;;;;8.57;4.90;;;-4.00;99.90;;;;;;5036911;28;20261;-87
2022/12/14 06:09:35;;;;;;;7.97;5.20;;;-4.10;99.90;;;;;;5038061;28;20211;-81
2022/12/14 06:12:00;;;;;;;7.03;5.00;;;-4.00;99.90;;;;;;5038000;28;20415;-81
2022/12/14 06:14:26;;;;;;;10.03;5.20;;;-4.00;99.90;;;;;;5037205;28;20225;-81
2022/12/14 06:16:52;;;;;;;9.63;5.13;;;-4.10;99.90;;;;;;5037584;28;20330;-81
2022/12/14 06:19:17;;;;;;;8.63;4.97;;;-4.10;99.90;;;;;;5055766;28;20294;-79
2022/12/14 06:21:43;;;;;;;6.83;4.30;;;-4.10;99.90;;;;;;5037650;28;20185;-82
2022/12/14 06:24:10;;;;;;;6.13;4.23;;;-4.10;99.90;;;;;;5037556;28;20605;-81
2022/12/14 06:26:39;;;;;;;7.60;4.70;;;-4.20;99.90;;;;;;5038136;28;20198;-81
2022/12/14 06:29:05;;;;;;;9.47;5.43;;;-4.20;99.90;;;;;;5055502;28;20453;-81
2022/12/14 06:31:32;;;;;;;9.23;5.27;;;-4.30;99.90;;;;;;5055680;28;20422;-81
2022/12/14 06:33:59;;;;;;;9.10;4.93;;;-4.40;99.90;;;;;;5056256;28;20170;-81
2022/12/14 06:36:27;;;;;;;8.53;4.93;;;-4.40;99.90;;;;;;5037938;28;20431;-82
2022/12/14 06:38:54;;;;;;;7.70;4.60;;;-4.50;99.90;;;;;;5055905;28;20444;-81
2022/12/14 06:41:20;;;;;;;9.27;5.30;;;-4.50;99.90;;;;;;5037934;28;20443;-81
2022/12/14 06:43:46;;;;;;;9.83;5.37;;;-4.60;99.90;;;;;;5037337;28;20420;-81
2022/12/14 06:46:15;;;;;;;7.27;5.20;;;-4.60;99.90;;;;;;5055525;28;20570;-80
2022/12/14 06:48:41;;;;;;;8.10;4.77;;;-4.60;99.90;;;;;;5037906;28;20447;-81
2022/12/14 06:51:07;;;;;;;7.97;5.33;;;-4.60;99.90;;;;;;5055201;28;20459;-81
2022/12/14 06:53:34;;;;;;;6.67;4.50;;;-4.60;99.90;;;;;;5055060;28;20408;-81
2022/12/14 06:56:15;;;;;;;10.17;5.70;;;-4.70;99.90;;;;;;5055068;28;20442;-81
2022/12/14 06:58:41;;;;;;;7.60;4.93;;;-4.60;99.90;;;;;;5055283;28;20435;-81
2022/12/14 07:01:12;;;;;;;13.30;7.10;;;-4.70;99.90;;;;;;5037876;28;20414;-80
2022/12/14 07:03:39;;;;;;;17.23;8.00;;;-4.50;99.90;;;;;;5037168;28;20414;-80
2022/12/14 07:06:05;;;;;;;6.50;4.33;;;-4.40;99.90;;;;;;5055368;28;20508;-81
2022/12/14 07:08:34;;;;;;;7.10;4.47;;;-4.20;99.90;;;;;;5054341;28;20447;-81
2022/12/14 07:11:08;;;;;;;7.67;4.20;;;-4.00;99.90;;;;;;5036891;28;20415;-84
2022/12/14 07:13:34;;;;;;;6.37;4.30;;;-3.80;99.90;;;;;;5036185;28;20472;-84
2022/12/14 07:16:01;;;;;;;6.70;4.80;;;-3.70;99.90;;;;;;5053833;28;20443;-88
2022/12/14 07:18:27;;;;;;;8.23;5.23;;;-3.80;99.90;;;;;;5035886;28;20173;-84
2022/12/14 07:21:00;;;;;;;7.03;4.60;;;-3.90;99.90;;;;;;5035442;28;20408;-85
2022/12/14 07:23:28;;;;;;;7.47;4.50;;;-3.90;99.90;;;;;;5053503;28;20414;-85
2022/12/14 07:26:07;;;;;;;8.47;4.60;;;-3.90;99.90;;;;;;5053531;28;20478;-84
2022/12/14 07:28:35;;;;;;;7.27;4.67;;;-3.80;99.90;;;;;;5035870;28;21015;-84
2022/12/14 07:31:02;;;;;;;22.60;17.63;;;-3.80;99.90;;;;;;5034719;28;20964;-84
2022/12/14 07:33:28;;;;;;;9.17;5.30;;;-3.90;99.90;;;;;;5050517;28;20412;-86
2022/12/14 07:36:08;;;;;;;7.80;4.70;;;-3.90;99.90;;;;;;5035391;28;20427;-84
2022/12/14 07:38:36;;;;;;;7.97;4.27;;;-4.00;99.90;;;;;;5036699;28;20408;-83
2022/12/14 07:41:02;;;;;;;10.93;5.60;;;-4.00;99.90;;;;;;5053661;28;20928;-85
2022/12/14 07:43:28;;;;;;;7.40;4.50;;;-4.10;99.90;;;;;;5052920;28;20430;-87
2022/12/14 07:45:58;;;;;;;8.27;4.60;;;-4.20;99.90;;;;;;5032528;28;20444;-85
2022/12/14 07:48:24;;;;;;;12.67;6.63;;;-4.20;99.90;;;;;;5053170;28;20184;-81
2022/12/14 07:50:49;;;;;;;12.40;7.33;;;-4.20;99.90;;;;;;5036399;28;20956;-85
2022/12/14 07:53:15;;;;;;;9.83;5.63;;;-4.10;99.90;;;;;;5052914;28;20526;-85
2022/12/14 07:55:41;;;;;;;7.87;4.40;;;-4.10;99.90;;;;;;5052941;28;20189;-83
2022/12/14 07:58:06;;;;;;;9.33;5.40;;;-4.10;99.90;;;;;;5035158;28;20408;-84
2022/12/14 08:00:32;;;;;;;9.23;4.80;;;-4.00;99.90;;;;;;5052877;28;20188;-83
2022/12/14 08:02:58;;;;;;;6.90;4.57;;;-4.00;99.90;;;;;;5034842;28;20187;-83
2022/12/14 08:05:23;;;;;;;8.73;4.93;;;-4.00;99.90;;;;;;5035254;28;20243;-83
2022/12/14 08:07:49;;;;;;;8.57;4.53;;;-3.80;99.90;;;;;;5052923;28;20176;-83
2022/12/14 08:10:14;;;;;;;21.77;13.83;;;-3.90;99.90;;;;;;5034099;28;20227;-85
2022/12/14 08:12:40;;;;;;;8.93;5.07;;;-4.00;99.90;;;;;;5031193;28;20228;-83
2022/12/14 08:15:06;;;;;;;8.50;5.33;;;-3.90;99.90;;;;;;5034979;28;20229;-80
2022/12/14 08:17:32;;;;;;;8.60;5.80;;;-4.00;99.90;;;;;;5034615;28;20177;-84
2022/12/14 08:19:57;;;;;;;8.87;5.90;;;-4.00;99.90;;;;;;5035021;28;20473;-84
2022/12/14 08:22:23;;;;;;;9.00;5.30;;;-4.00;99.90;;;;;;5034724;28;20550;-87
2022/12/14 08:24:48;;;;;;;9.27;5.83;;;-4.10;99.90;;;;;;5034762;28;20200;-80
2022/12/14 08:27:14;;;;;;;10.13;5.30;;;-4.10;99.90;;;;;;5035676;28;20286;-81
2022/12/14 08:29:39;;;;;;;7.70;5.07;;;-4.00;99.90;;;;;;5035756;28;20198;-81
2022/12/14 08:32:05;;;;;;;11.27;7.60;;;-4.00;99.90;;;;;;5035439;28;20177;-83
2022/12/14 08:34:31;;;;;;;7.87;5.40;;;-3.90;99.90;;;;;;5053262;28;20191;-81
2022/12/14 08:36:56;;;;;;;8.03;5.20;;;-3.90;99.90;;;;;;5037762;28;20231;-81
2022/12/14 08:39:22;;;;;;;8.03;4.80;;;-3.90;99.90;;;;;;5035551;28;20592;-82
2022/12/14 08:41:47;;;;;;;11.87;6.73;;;-3.90;99.90;;;;;;5033440;28;20188;-85
2022/12/14 08:44:15;;;;;;;9.23;4.97;;;-3.80;99.90;;;;;;5033878;28;20552;-85
2022/12/14 08:46:41;;;;;;;9.67;5.73;;;-3.80;99.90;;;;;;5034006;28;20695;-85
2022/12/14 08:49:07;;;;;;;13.80;9.13;;;-3.70;99.90;;;;;;5033031;28;20499;-85
2022/12/14 08:51:38;;;;;;;11.27;6.30;;;-3.80;99.90;;;;;;5034150;28;20189;-84
2022/12/14 08:54:04;;;;;;;15.50;10.33;;;-3.80;99.90;;;;;;5033485;28;20190;-84
2022/12/14 08:56:29;;;;;;;14.43;9.30;;;-3.80;99.90;;;;;;5033966;28;20258;-85
2022/12/14 08:58:56;;;;;;;15.00;9.90;;;-3.80;99.90;;;;;;5033913;28;20191;-83
2022/12/14 09:01:26;;;;;;;10.50;6.00;;;-3.80;99.90;;;;;;5033954;28;20199;-84
2022/12/14 09:03:52;;;;;;;11.47;6.00;;;-3.70;99.90;;;;;;5033288;28;20177;-84
2022/12/14 09:06:25;;;;;;;12.33;7.77;;;-3.70;99.90;;;;;;5050776;28;20471;-84
2022/12/14 09:08:51;;;;;;;8.87;5.47;;;-3.70;99.90;;;;;;5051516;28;20230;-84
2022/12/14 09:11:18;;;;;;;23.63;16.03;;;-3.60;99.90;;;;;;5034958;28;20464;-84
2022/12/14 09:13:43;;;;;;;15.13;8.00;;;-3.70;99.90;;;;;;5051447;28;20644;-84
2022/12/14 09:16:18;;;;;;;9.53;5.83;;;-3.70;99.90;;;;;;5051459;28;20272;-85
2022/12/14 09:18:44;;;;;;;16.63;8.77;;;-3.70;99.90;;;;;;5051783;28;20219;-85
2022/12/14 09:21:10;;;;;;;11.30;6.60;;;-3.60;99.90;;;;;;5032449;28;20564;-85
2022/12/14 09:23:36;;;;;;;11.00;6.70;;;-3.60;99.90;;;;;;5037589;28;20177;-84
2022/12/14 09:26:05;;;;;;;8.50;5.50;;;-3.50;99.90;;;;;;5037359;28;20204;-84
2022/12/14 09:28:33;;;;;;;10.90;5.33;;;-3.40;99.90;;;;;;5037352;28;20173;-83
2022/12/14 09:31:02;;;;;;;15.53;8.73;;;-3.30;99.90;;;;;;5055400;28;20174;-83
2022/12/14 09:33:28;;;;;;;15.77;8.10;;;-3.20;99.90;;;;;;5055152;28;20408;-84
2022/12/14 09:36:04;;;;;;;14.20;7.90;;;-3.10;99.90;;;;;;5037418;28;20276;-86
2022/12/14 09:38:32;;;;;;;20.50;9.23;;;-3.00;99.90;;;;;;5037409;28;20177;-84
2022/12/14 09:41:01;;;;;;;14.33;7.40;;;-3.00;99.90;;;;;;5037378;28;20231;-85
2022/12/14 09:43:37;;;;;;;11.03;6.97;;;-3.10;99.90;;;;;;5055439;28;20170;-85
2022/12/14 09:46:23;;;;;;;10.30;6.47;;;-3.10;99.90;;;;;;5053801;28;20732;-84
2022/12/14 09:48:51;;;;;;;11.00;6.50;;;-3.20;99.90;;;;;;5034878;28;20251;-84
2022/12/14 09:51:19;;;;;;;12.43;7.23;;;-3.20;99.90;;;;;;5037177;28;20184;-85
2022/12/14 09:53:49;;;;;;;14.47;7.83;;;-3.10;99.90;;;;;;5036820;28;20704;-84
2022/12/14 09:56:18;;;;;;;11.40;7.57;;;-3.10;99.90;;;;;;5037258;28;20202;-86
2022/12/14 09:58:53;;;;;;;12.37;7.87;;;-2.90;99.90;;;;;;5054986;28;20185;-85
2022/12/14 10:01:22;;;;;;;13.73;7.80;;;-2.90;99.90;;;;;;5055116;28;20192;-85
2022/12/14 10:04:22;;;;;;;16.10;11.27;;;-2.80;99.90;;;;;;5070302;28;20209;-84
2022/12/14 10:07:17;;;;;;;18.93;11.83;;;-2.70;99.90;;;;;;5054996;28;20213;-85
2022/12/14 10:10:03;;;;;;;11.70;7.93;;;-2.60;99.90;;;;;;5070345;28;20194;-85
2022/12/14 10:12:49;;;;;;;12.57;6.90;;;-2.50;99.90;;;;;;5036431;28;20178;-85
2022/12/14 10:15:18;;;;;;;9.97;6.40;;;-2.40;99.90;;;;;;5049870;28;20198;-84
2022/12/14 10:18:12;;;;;;;13.10;7.13;;;-2.40;99.90;;;;;;5045009;28;20170;-86
2022/12/14 10:20:48;;;;;;;12.13;6.63;;;-2.40;99.90;;;;;;5053649;28;20637;-85
2022/12/14 10:23:19;;;;;;;9.93;6.17;;;-2.30;99.90;;;;;;5037021;28;20188;-85
2022/12/14 10:25:48;;;;;;;9.90;6.00;;;-2.40;99.90;;;;;;5054586;28;20218;-85
2022/12/14 10:28:57;;;;;;;10.60;6.17;;;-2.40;99.90;;;;;;5036753;28;20265;-85
2022/12/14 10:31:37;;;;;;;9.17;5.70;;;-2.40;99.90;;;;;;4976357;28;20266;-84
2022/12/14 10:34:15;;;;;;;10.07;6.70;;;-2.40;99.90;;;;;;5043583;28;20250;-84
2022/12/14 10:36:52;;;;;;;11.80;6.67;;;-2.40;99.90;;;;;;5036447;28;20294;-83
2022/12/14 10:39:29;;;;;;;8.93;5.87;;;-2.30;99.90;;;;;;5016464;28;20186;-83
2022/12/14 10:42:04;;;;;;;16.30;9.10;;;-2.40;99.90;;;;;;5042047;28;20173;-83
2022/12/14 10:44:51;;;;;;;47.07;19.37;;;-2.40;99.90;;;;;;5036643;28;20374;-84
2022/12/14 10:47:24;;;;;;;24.27;11.77;;;-2.30;99.90;;;;;;5036529;28;20162;-83
2022/12/14 10:50:19;;;;;;;33.57;14.17;;;-2.20;99.90;;;;;;5036374;28;20236;-83
2022/12/14 10:52:47;;;;;;;17.30;8.47;;;-2.20;99.90;;;;;;5036312;28;20170;-82
2022/12/14 10:55:43;;;;;;;20.73;9.90;;;-2.10;99.90;;;;;;5054762;28;20204;-82
2022/12/14 10:58:10;;;;;;;29.83;12.87;;;-2.10;99.90;;;;;;5023643;28;20192;-84
2022/12/14 11:00:36;;;;;;;23.83;11.10;;;-2.00;99.90;;;;;;5036232;28;20174;-83
2022/12/14 11:03:02;;;;;;;22.70;11.03;;;-1.90;99.90;;;;;;5053828;28;20177;-88
2022/12/14 11:05:52;;;;;;;22.43;10.33;;;-1.90;99.90;;;;;;5056414;28;20206;-84
2022/12/14 11:08:38;;;;;;;21.30;9.30;;;-1.70;99.90;;;;;;5057885;28;20177;-83
2022/12/14 11:11:12;;;;;;;18.77;9.27;;;-1.50;99.90;;;;;;5038312;28;20277;-86
2022/12/14 11:13:37;;;;;;;12.23;6.60;;;-1.40;99.90;;;;;;5053913;28;20172;-84
2022/12/14 11:16:34;;;;;;;11.83;6.70;;;-1.30;99.90;;;;;;5053699;28;20281;-84
2022/12/14 11:19:01;;;;;;;11.80;6.33;;;-1.10;99.90;;;;;;5041405;28;20181;-84
2022/12/14 11:21:36;;;;;;;8.93;5.83;;;-1.00;99.90;;;;;;5035846;28;20176;-83
2022/12/14 11:24:02;;;;;;;8.57;5.63;;;-1.00;99.90;;;;;;5035248;28;20186;-83
2022/12/14 11:26:41;;;;;;;12.27;7.10;;;-1.00;99.90;;;;;;5052309;28;20245;-83
2022/12/14 11:29:20;;;;;;;10.33;5.90;;;-0.90;99.90;;;;;;5053031;28;20200;-83
2022/12/14 11:31:48;;;;;;;10.33;6.00;;;-0.90;99.90;;;;;;5035994;28;20171;-84
2022/12/14 11:34:33;;;;;;;10.90;5.93;;;-1.00;99.90;;;;;;5052150;28;20171;-85
2022/12/14 11:37:28;;;;;;;9.40;6.03;;;-1.00;99.90;;;;;;5034404;28;20189;-85
2022/12/14 11:40:03;;;;;;;9.17;6.30;;;-1.10;99.90;;;;;;5035703;28;20521;-84
2022/12/14 11:42:29;;;;;;;9.63;6.23;;;-1.10;99.90;;;;;;5019536;28;20178;-87
2022/12/14 11:45:26;;;;;;;9.53;6.33;;;-1.00;99.90;;;;;;5035172;28;20236;-87
2022/12/14 11:48:13;;;;;;;10.57;6.43;;;-1.10;99.90;;;;;;5053045;28;20253;-84
2022/12/14 11:50:40;;;;;;;7.30;5.03;;;-0.90;99.90;;;;;;5035073;28;20238;-84
2022/12/14 11:53:10;;;;;;;10.20;6.13;;;-0.90;99.90;;;;;;5034812;28;20184;-85
2022/12/14 11:55:38;;;;;;;8.50;6.00;;;-0.80;99.90;;;;;;5052786;28;20205;-87
2022/12/14 11:58:13;;;;;;;8.70;5.90;;;-0.60;99.90;;;;;;5034815;28;20178;-85
2022/12/14 12:01:02;;;;;;;8.40;5.47;;;-0.50;99.90;;;;;;5034924;28;20230;-85
2022/12/14 12:03:41;;;;;;;9.23;5.17;;;-0.40;99.90;;;;;;5034762;28;20175;-87
2022/12/14 12:06:11;;;;;;;7.80;5.60;;;-0.30;99.90;;;;;;5033467;28;20243;-86
2022/12/14 12:08:39;;;;;;;8.17;5.40;;;-0.30;99.90;;;;;;5051549;28;20233;-86
2022/12/14 12:11:16;;;;;;;9.93;6.43;;;-0.30;99.90;;;;;;5033726;28;20203;-86
2022/12/14 12:13:46;;;;;;;9.77;5.33;;;-0.40;99.90;;;;;;5051340;28;20176;-86
2022/12/14 12:16:19;;;;;;;7.93;5.20;;;-0.40;99.90;;;;;;5033630;28;20195;-87
2022/12/14 12:18:57;;;;;;;7.87;5.33;;;-0.40;99.90;;;;;;5033703;28;20561;-85
2022/12/14 12:21:39;;;;;;;7.23;5.10;;;-0.30;99.90;;;;;;5027342;28;20178;-86
2022/12/14 12:24:30;;;;;;;10.20;5.90;;;-0.30;99.90;;;;;;5051459;28;20180;-87
2022/12/14 12:26:59;;;;;;;9.03;6.07;;;-0.30;99.90;;;;;;5033507;28;20198;-86
2022/12/14 12:29:39;;;;;;;8.83;6.33;;;-0.40;99.90;;;;;;5033651;28;20212;-86
2022/12/14 12:32:04;;;;;;;11.70;5.97;;;-0.40;99.90;;;;;;5051502;28;20229;-87
2022/12/14 12:34:38;;;;;;;10.37;6.70;;;-0.30;99.90;;;;;;5033462;28;20395;-88
2022/12/14 12:37:12;;;;;;;8.37;6.10;;;-0.20;99.90;;;;;;5051330;28;20286;-89
2022/12/14 12:39:42;;;;;;;11.10;7.00;;;-0.30;99.90;;;;;;5033663;28;20616;-89
2022/12/14 12:42:40;;;;;;;10.57;6.57;;;-0.30;99.90;;;;;;5051655;28;20280;-90
2022/12/14 12:45:24;;;;;;;9.63;6.00;;;-0.30;99.90;;;;;;5033606;28;20298;-85
2022/12/14 12:47:58;;;;;;;10.30;6.60;;;-0.40;99.90;;;;;;5033949;28;20678;-85
2022/12/14 12:50:34;;;;;;;9.17;5.90;;;-0.40;99.90;;;;;;5033576;28;20289;-85
2022/12/14 12:53:09;;;;;;;11.30;6.30;;;-0.50;99.90;;;;;;5033329;28;20192;-85
2022/12/14 12:55:41;;;;;;;9.77;6.40;;;-0.50;99.90;;;;;;5035810;28;20195;-87
2022/12/14 12:58:14;;;;;;;10.40;6.97;;;-0.60;99.90;;;;;;5039871;28;20180;-87
2022/12/14 13:00:40;;;;;;;10.00;6.40;;;-0.60;99.90;;;;;;5039805;28;20179;-87
2022/12/14 13:03:17;;;;;;;15.37;8.40;;;-0.60;99.90;;;;;;5057326;28;20228;-87
2022/12/14 13:05:44;;;;;;;12.47;7.47;;;-0.60;99.90;;;;;;5003738;28;1077001;-87
2022/12/14 13:08:27;;;;;;;10.70;7.00;;;-0.50;99.90;;;;;;5041017;28;20233;-87
2022/12/14 13:10:55;;;;;;;9.27;6.40;;;-0.50;99.90;;;;;;5058606;28;20175;-87
2022/12/14 13:13:25;;;;;;;11.27;6.97;;;-0.40;99.90;;;;;;5040545;28;20183;-87
2022/12/14 13:15:54;;;;;;;11.80;7.33;;;-0.30;99.90;;;;;;5040560;28;20189;-86
2022/12/14 13:18:36;;;;;;;10.00;6.80;;;-0.30;99.90;;;;;;5040473;28;20204;-87